Time;durP1;ratioP1;P1;durP2;ratioP2;P2;SDS_P1;SDS_P2;PMS_P1;PMS_P2;Temp;Humidity;BMP_temperature;BMP_pressure;BME280_temperature;BME280_humidity;BME280_pressure;Samples;Min_cycle;Max_cycle;Signal;HPM_P1;HPM_P2
2022/02/24 00:00:49;;;;;;;14.80;5.70;;;;;;;1.46;67.59;100918.24;130246;1268;109085;-76
2022/02/24 00:03:55;;;;;;;18.80;6.40;;;;;;;1.48;67.68;100919.88;130260;1268;107443;-78
2022/02/24 00:07:00;;;;;;;18.50;6.90;;;;;;;1.48;67.56;100918.84;130266;1268;108859;-78
2022/02/24 00:10:09;;;;;;;15.40;5.50;;;;;;;1.46;67.51;100924.92;130269;1268;108682;-78
2022/02/24 00:13:15;;;;;;;17.00;5.70;;;;;;;1.42;67.51;100924.41;130294;1268;108734;-78
2022/02/24 00:16:21;;;;;;;17.20;5.90;;;;;;;1.38;67.36;100922.67;130287;1268;108949;-78
2022/02/24 00:19:26;;;;;;;14.90;6.30;;;;;;;1.33;67.62;100918.52;130250;1268;109192;-77
2022/02/24 00:22:32;;;;;;;14.60;5.90;;;;;;;1.28;67.54;100913.86;130220;1268;108775;-79
2022/02/24 00:25:38;;;;;;;13.60;5.40;;;;;;;1.23;67.40;100916.08;130215;1268;109112;-79
2022/02/24 00:28:44;;;;;;;14.60;5.80;;;;;;;1.13;67.40;100914.10;130250;1268;108004;-78
2022/02/24 00:31:49;;;;;;;14.50;5.60;;;;;;;1.02;67.50;100908.52;130225;1268;108721;-78
2022/02/24 00:34:55;;;;;;;18.20;6.80;;;;;;;0.94;67.48;100912.41;130209;1268;108881;-78
2022/02/24 00:38:00;;;;;;;14.30;6.00;;;;;;;0.84;67.61;100912.73;130286;1268;108717;-78
2022/02/24 00:41:06;;;;;;;16.60;6.10;;;;;;;0.75;67.58;100914.18;130283;1268;108651;-78
2022/02/24 00:44:12;;;;;;;15.60;6.20;;;;;;;0.69;67.94;100916.96;130244;1268;109016;-80
2022/02/24 00:47:18;;;;;;;13.10;5.90;;;;;;;0.64;67.73;100915.43;130215;1268;108767;-80
2022/02/24 00:50:24;;;;;;;17.10;6.40;;;;;;;0.58;67.78;100917.10;130381;1268;109230;-78
2022/02/24 00:53:30;;;;;;;15.10;7.00;;;;;;;0.55;67.89;100914.13;130247;1268;108828;-76
2022/02/24 00:56:35;;;;;;;16.30;6.70;;;;;;;0.52;67.92;100917.23;130218;1268;108880;-77
2022/02/24 00:59:41;;;;;;;18.20;6.90;;;;;;;0.46;67.46;100919.27;130103;1268;154231;-76
2022/02/24 01:02:47;;;;;;;18.10;7.20;;;;;;;0.43;67.77;100920.48;130245;1268;108554;-77
2022/02/24 01:05:52;;;;;;;17.60;8.10;;;;;;;0.38;67.75;100921.02;130265;1268;108791;-77
2022/02/24 01:08:58;;;;;;;21.50;8.20;;;;;;;0.35;67.70;100918.39;130219;1268;108806;-77
2022/02/24 01:12:03;;;;;;;18.60;7.30;;;;;;;0.32;67.95;100917.26;130220;1268;109029;-78
2022/02/24 01:15:12;;;;;;;17.30;6.70;;;;;;;0.33;68.05;100918.47;130241;1268;107000;-77
2022/02/24 01:18:18;;;;;;;19.00;8.20;;;;;;;0.35;67.87;100918.20;130137;1268;108668;-78
2022/02/24 01:21:24;;;;;;;18.80;7.70;;;;;;;0.42;68.12;100914.04;130111;1268;108861;-78
2022/02/24 01:24:29;;;;;;;21.10;8.90;;;;;;;0.48;67.99;100915.16;130238;1268;108961;-77
2022/02/24 01:27:34;;;;;;;24.80;9.30;;;;;;;0.51;67.85;100915.20;130265;1268;108922;-77
2022/02/24 01:30:40;;;;;;;20.70;9.00;;;;;;;0.54;67.82;100912.95;130218;1268;108691;-76
2022/02/24 01:33:45;;;;;;;18.20;8.10;;;;;;;0.54;67.67;100911.38;130242;1268;107656;-77
2022/02/24 01:36:51;;;;;;;19.70;7.80;;;;;;;0.50;67.68;100909.82;130239;1268;108779;-76
2022/02/24 01:39:56;;;;;;;16.60;6.90;;;;;;;0.46;67.85;100908.95;130241;1268;108939;-75
2022/02/24 01:43:02;;;;;;;18.40;7.10;;;;;;;0.46;67.83;100904.23;130220;1268;108695;-78
2022/02/24 01:46:07;;;;;;;19.80;7.80;;;;;;;0.41;67.80;100904.12;130244;1268;107420;-76
2022/02/24 01:49:13;;;;;;;17.10;6.90;;;;;;;0.35;67.97;100900.52;130219;1268;108692;-77
2022/02/24 01:52:19;;;;;;;16.70;7.20;;;;;;;0.28;67.71;100898.56;130281;1268;108673;-79
2022/02/24 01:55:24;;;;;;;17.50;7.60;;;;;;;0.20;67.66;100893.35;130249;1268;107737;-78
2022/02/24 01:58:30;;;;;;;16.00;6.90;;;;;;;0.11;67.94;100893.77;130194;1268;108806;-78
2022/02/24 02:01:35;;;;;;;18.20;7.50;;;;;;;0.06;68.01;100891.91;130250;1268;108735;-78
2022/02/24 02:04:41;;;;;;;17.40;7.90;;;;;;;0.03;67.89;100893.79;130220;1268;108821;-78
2022/02/24 02:07:47;;;;;;;16.20;7.30;;;;;;;-0.02;67.97;100884.21;130230;1268;108750;-78
2022/02/24 02:10:52;;;;;;;23.90;8.30;;;;;;;-0.08;67.94;100887.98;130231;1268;107699;-81
2022/02/24 02:13:57;;;;;;;20.20;8.30;;;;;;;-0.12;68.04;100882.05;130242;1267;108802;-77
2022/02/24 02:17:03;;;;;;;19.00;8.50;;;;;;;-0.16;68.11;100879.93;130317;1268;108862;-79
2022/02/24 02:20:11;;;;;;;21.50;8.30;;;;;;;-0.16;68.18;100882.92;130383;1268;108825;-80
2022/02/24 02:23:16;;;;;;;20.10;8.50;;;;;;;-0.18;68.08;100880.90;130335;1268;107694;-80
2022/02/24 02:26:22;;;;;;;21.50;8.80;;;;;;;-0.21;68.03;100881.73;130490;1268;108749;-79
2022/02/24 02:29:28;;;;;;;23.70;9.20;;;;;;;-0.26;67.92;100878.10;130511;1268;108755;-81
2022/02/24 02:32:34;;;;;;;25.80;9.40;;;;;;;-0.27;68.27;100879.93;130379;1268;108947;-81
2022/02/24 02:35:40;;;;;;;25.60;9.90;;;;;;;-0.26;68.17;100877.95;130462;1268;107337;-80
2022/02/24 02:38:47;;;;;;;24.10;10.10;;;;;;;-0.24;68.39;100872.61;130382;1268;108819;-78
2022/02/24 02:41:52;;;;;;;27.70;11.40;;;;;;;-0.22;68.41;100869.52;130294;1268;107699;-79
2022/02/24 02:44:58;;;;;;;31.00;13.30;;;;;;;-0.18;68.28;100864.81;130385;1268;108739;-79
2022/02/24 02:48:05;;;;;;;28.80;12.60;;;;;;;-0.11;68.53;100862.58;130240;1268;108767;-77
2022/02/24 02:51:12;;;;;;;32.60;13.00;;;;;;;-0.08;68.21;100863.47;130250;1268;108799;-80
2022/02/24 02:54:17;;;;;;;30.80;12.70;;;;;;;-0.05;68.06;100862.62;130319;1268;108752;-80
2022/02/24 02:57:23;;;;;;;32.20;12.50;;;;;;;-0.06;68.10;100859.73;130316;1268;108708;-79
2022/02/24 03:00:29;;;;;;;28.10;12.10;;;;;;;-0.09;68.15;100857.77;130212;1268;108562;-80
2022/02/24 03:03:34;;;;;;;30.80;11.70;;;;;;;-0.13;68.29;100862.48;130238;1268;109159;-77
2022/02/24 03:06:40;;;;;;;28.20;12.30;;;;;;;-0.18;68.29;100860.80;130221;1268;108676;-76
2022/02/24 03:09:45;;;;;;;30.30;12.30;;;;;;;-0.23;68.37;100860.50;130223;1269;108774;-79
2022/02/24 03:12:51;;;;;;;26.60;11.90;;;;;;;-0.29;68.16;100865.15;130238;1268;108828;-78
2022/02/24 03:15:56;;;;;;;30.20;12.70;;;;;;;-0.34;68.54;100862.77;130240;1268;108481;-80
2022/02/24 03:19:02;;;;;;;31.90;12.50;;;;;;;-0.41;68.41;100860.77;130222;1268;107817;-78
2022/02/24 03:22:12;;;;;;;31.20;13.70;;;;;;;-0.47;68.53;100858.04;130284;1268;108771;-78
2022/02/24 03:25:17;;;;;;;31.20;13.30;;;;;;;-0.50;68.95;100855.22;130213;1268;108910;-79
2022/02/24 03:28:23;;;;;;;30.10;13.50;;;;;;;-0.53;68.90;100852.59;130218;1268;109245;-78
2022/02/24 03:31:30;;;;;;;32.40;13.80;;;;;;;-0.56;69.05;100854.95;130343;1268;108855;-80
2022/02/24 03:34:36;;;;;;;30.80;13.10;;;;;;;-0.57;69.25;100849.09;130283;1268;106669;-77
2022/02/24 03:37:42;;;;;;;36.00;14.00;;;;;;;-0.58;69.13;100854.52;130206;1268;108733;-76
2022/02/24 03:40:48;;;;;;;34.60;12.90;;;;;;;-0.57;69.04;100856.94;130259;1268;108846;-76
2022/02/24 03:43:53;;;;;;;33.60;14.00;;;;;;;-0.54;69.21;100847.02;130265;1268;109671;-79
2022/02/24 03:46:59;;;;;;;30.30;12.60;;;;;;;-0.50;69.13;100850.17;130283;1268;108692;-81
2022/02/24 03:50:06;;;;;;;31.00;13.00;;;;;;;-0.45;68.85;100849.08;130435;1268;106610;-78
2022/02/24 03:53:12;;;;;;;32.50;13.60;;;;;;;-0.38;69.12;100850.87;130360;1268;108775;-79
2022/02/24 03:56:17;;;;;;;33.30;13.60;;;;;;;-0.32;68.93;100852.17;130301;1268;108580;-77
2022/02/24 03:59:23;;;;;;;35.10;14.40;;;;;;;-0.30;69.09;100852.64;130280;1268;107843;-80
2022/02/24 04:02:29;;;;;;;29.60;12.80;;;;;;;-0.36;68.87;100856.38;130219;1268;108957;-80
2022/02/24 04:05:35;;;;;;;32.30;14.00;;;;;;;-0.37;69.07;100851.90;130297;1268;109012;-77
2022/02/24 04:08:40;;;;;;;31.00;14.00;;;;;;;-0.40;69.11;100842.89;130293;1268;108694;-78
2022/02/24 04:11:46;;;;;;;30.50;14.00;;;;;;;-0.43;69.31;100845.11;130200;1268;109169;-80
2022/02/24 04:14:51;;;;;;;29.60;13.70;;;;;;;-0.47;69.38;100847.59;130264;1268;108940;-80
2022/02/24 04:17:56;;;;;;;31.40;14.90;;;;;;;-0.51;69.38;100841.83;130193;1268;108665;-78
2022/02/24 04:21:02;;;;;;;34.00;13.90;;;;;;;-0.53;69.50;100834.05;130134;1268;108830;-78
2022/02/24 04:24:09;;;;;;;33.30;14.20;;;;;;;-0.57;69.68;100834.56;130148;1268;108625;-78
2022/02/24 04:27:14;;;;;;;32.50;12.80;;;;;;;-0.59;69.58;100835.36;130177;1268;106871;-79
2022/02/24 04:30:22;;;;;;;31.20;14.30;;;;;;;-0.64;69.59;100831.39;130213;1268;108815;-80
2022/02/24 04:33:27;;;;;;;28.80;13.30;;;;;;;-0.68;69.60;100828.60;130198;1268;109841;-77
2022/02/24 04:36:32;;;;;;;34.60;14.20;;;;;;;-0.71;69.50;100825.03;130244;1268;108843;-77
2022/02/24 04:39:38;;;;;;;34.00;13.70;;;;;;;-0.73;69.65;100828.48;130204;1268;108703;-77
2022/02/24 04:42:44;;;;;;;35.50;13.60;;;;;;;-0.76;69.85;100829.81;130209;1268;108711;-77
2022/02/24 04:45:50;;;;;;;32.70;14.00;;;;;;;-0.76;69.70;100827.20;130274;1268;107760;-77
2022/02/24 04:48:56;;;;;;;31.20;13.50;;;;;;;-0.71;69.85;100828.00;130327;1268;106787;-76
2022/02/24 04:52:02;;;;;;;30.20;12.30;;;;;;;-0.65;70.29;100823.56;130374;1268;108925;-78
2022/02/24 04:55:10;;;;;;;33.00;13.90;;;;;;;-0.59;69.94;100825.39;130338;1268;109109;-78
2022/02/24 04:58:16;;;;;;;31.60;15.20;;;;;;;-0.54;70.03;100828.16;130473;1268;108681;-77
2022/02/24 05:01:21;;;;;;;37.80;15.40;;;;;;;-0.52;70.03;100821.42;130217;1268;108946;-77
2022/02/24 05:04:26;;;;;;;51.60;22.10;;;;;;;-0.54;70.25;100820.79;130223;1268;108143;-77
2022/02/24 05:07:32;;;;;;;63.00;27.50;;;;;;;-0.55;70.43;100822.58;130175;1268;108828;-78
2022/02/24 05:10:37;;;;;;;57.80;24.70;;;;;;;-0.54;70.44;100820.11;130357;1270;109133;-78
2022/02/24 05:13:43;;;;;;;59.00;27.10;;;;;;;-0.53;70.57;100820.95;130219;1268;108824;-78
2022/02/24 05:16:48;;;;;;;54.90;24.00;;;;;;;-0.50;71.09;100814.02;130290;1267;108655;-78
2022/02/24 05:19:54;;;;;;;50.10;25.30;;;;;;;-0.48;70.82;100816.67;130193;1268;108716;-77
2022/02/24 05:22:59;;;;;;;50.00;22.30;;;;;;;-0.45;71.07;100818.83;130184;1268;109623;-80
2022/02/24 05:26:05;;;;;;;42.80;18.30;;;;;;;-0.48;71.18;100822.98;130188;1268;107545;-78
2022/02/24 05:29:11;;;;;;;43.60;20.40;;;;;;;-0.47;71.22;100821.90;130188;1268;108746;-78
2022/02/24 05:32:16;;;;;;;38.70;18.40;;;;;;;-0.42;71.50;100820.27;130201;1268;108918;-77
2022/02/24 05:35:21;;;;;;;40.90;16.90;;;;;;;-0.34;71.47;100828.14;130282;1268;108676;-77
2022/02/24 05:38:27;;;;;;;42.40;20.00;;;;;;;-0.26;71.64;100826.19;130205;1268;108571;-76
2022/02/24 05:41:32;;;;;;;37.60;15.70;;;;;;;-0.12;71.53;100831.86;130207;1268;108862;-77
2022/02/24 05:44:38;;;;;;;32.70;15.90;;;;;;;-0.02;71.48;100831.39;130199;1268;108747;-77
2022/02/24 05:47:43;;;;;;;37.50;16.30;;;;;;;0.04;71.61;100834.61;130178;1268;108807;-76
2022/02/24 05:50:49;;;;;;;33.90;15.30;;;;;;;0.09;71.62;100839.29;130217;1268;108866;-77
2022/02/24 05:53:54;;;;;;;33.70;15.20;;;;;;;0.12;71.59;100840.38;130303;1268;108869;-78
2022/02/24 05:57:00;;;;;;;33.00;14.90;;;;;;;0.13;71.57;100840.84;130313;1268;108685;-74
2022/02/24 06:00:07;;;;;;;40.20;18.20;;;;;;;0.14;71.58;100842.52;130351;1268;108846;-76
2022/02/24 06:03:18;;;;;;;37.10;17.90;;;;;;;0.13;71.77;100837.89;130299;1268;108804;-76
2022/02/24 06:06:24;;;;;;;48.60;24.00;;;;;;;0.13;71.94;100834.55;130238;1268;107534;-75
2022/02/24 06:09:29;;;;;;;47.90;24.10;;;;;;;0.13;72.25;100829.30;130193;1268;108751;-80
2022/02/24 06:12:35;;;;;;;42.30;18.80;;;;;;;0.15;72.09;100829.73;130241;1268;108945;-74
2022/02/24 06:15:40;;;;;;;40.40;19.10;;;;;;;0.19;72.23;100830.21;130258;1268;108826;-76
2022/02/24 06:18:46;;;;;;;33.30;14.30;;;;;;;0.30;72.25;100832.17;130332;1268;108940;-77
2022/02/24 06:21:52;;;;;;;35.70;15.40;;;;;;;0.42;72.25;100823.73;130303;1268;109070;-76
2022/02/24 06:24:57;;;;;;;32.10;14.60;;;;;;;0.52;71.99;100822.70;130216;1268;108689;-78
2022/02/24 06:28:03;;;;;;;31.40;14.00;;;;;;;0.62;72.21;100821.52;130321;1268;108971;-78
2022/02/24 06:31:08;;;;;;;39.30;17.30;;;;;;;0.68;72.24;100825.95;130258;1268;108778;-78
2022/02/24 06:34:14;;;;;;;34.40;16.50;;;;;;;0.75;72.19;100820.89;130274;1268;108792;-78
2022/02/24 06:37:19;;;;;;;32.60;16.60;;;;;;;0.79;72.16;100817.34;130285;1270;107319;-77
2022/02/24 06:40:25;;;;;;;38.10;17.10;;;;;;;0.83;72.26;100816.30;130280;1268;108648;-76
2022/02/24 06:43:30;;;;;;;32.10;15.40;;;;;;;0.87;72.35;100814.19;130317;1267;108744;-77
2022/02/24 06:46:35;;;;;;;32.40;14.80;;;;;;;0.90;72.55;100816.28;130089;1270;108971;-78
2022/02/24 06:49:43;;;;;;;34.30;15.80;;;;;;;0.92;72.47;100809.89;130315;1270;107749;-78
2022/02/24 06:52:48;;;;;;;39.80;18.20;;;;;;;0.95;72.57;100807.29;131285;1268;108823;-76
2022/02/24 06:55:54;;;;;;;42.00;17.90;;;;;;;1.00;72.62;100801.05;130339;1270;108859;-76
2022/02/24 06:58:59;;;;;;;39.70;16.40;;;;;;;1.09;72.72;100800.77;130331;1269;108848;-77
2022/02/24 07:02:06;;;;;;;32.50;14.10;;;;;;;1.22;72.62;100799.91;130469;1270;108861;-77
2022/02/24 07:05:13;;;;;;;34.70;14.80;;;;;;;1.38;72.76;100797.88;130471;1268;108735;-77
2022/02/24 07:08:18;;;;;;;32.00;14.60;;;;;;;1.53;72.78;100798.27;130339;1269;108728;-78
2022/02/24 07:11:24;;;;;;;32.20;14.80;;;;;;;1.66;72.61;100794.47;130326;1268;108678;-78
2022/02/24 07:14:29;;;;;;;36.40;15.00;;;;;;;1.75;72.67;100795.36;130456;1268;108743;-78
2022/02/24 07:17:38;;;;;;;31.50;15.10;;;;;;;1.84;72.57;100794.90;130362;1270;108818;-74
2022/02/24 07:20:44;;;;;;;29.20;14.20;;;;;;;1.88;72.55;100790.08;130346;1269;108820;-78
2022/02/24 07:23:50;;;;;;;30.40;13.90;;;;;;;1.93;72.56;100783.02;130299;1270;108681;-77
2022/02/24 07:26:55;;;;;;;34.70;14.50;;;;;;;1.97;72.73;100782.04;130322;1268;108665;-77
2022/02/24 07:30:01;;;;;;;29.30;14.50;;;;;;;2.01;72.71;100776.77;130345;1270;108613;-77
2022/02/24 07:33:07;;;;;;;33.60;14.10;;;;;;;2.06;72.81;100777.52;130282;1270;108786;-77
2022/02/24 07:36:14;;;;;;;35.50;16.30;;;;;;;2.09;72.81;100773.86;130565;1267;108760;-78
2022/02/24 07:39:21;;;;;;;41.20;21.90;;;;;;;2.11;72.68;100772.15;130368;1267;108790;-77
2022/02/24 07:42:28;;;;;;;29.60;13.40;;;;;;;2.20;72.78;100771.82;130380;1267;108861;-78
2022/02/24 07:45:34;;;;;;;53.30;25.10;;;;;;;2.33;72.83;100771.65;131185;1267;108709;-80
2022/02/24 07:48:39;;;;;;;33.30;17.60;;;;;;;2.45;72.76;100770.58;131054;1267;108931;-81
2022/02/24 07:51:48;;;;;;;36.10;19.90;;;;;;;2.59;72.77;100769.78;130610;1267;108802;-81
2022/02/24 07:54:55;;;;;;;41.30;21.70;;;;;;;2.71;72.70;100767.34;131108;1267;108661;-78
2022/02/24 07:58:01;;;;;;;40.70;22.90;;;;;;;2.79;72.64;100760.88;130524;1267;108739;-77
2022/02/24 08:01:06;;;;;;;40.10;21.50;;;;;;;2.86;72.63;100752.90;130435;1267;107796;-80
2022/02/24 08:04:12;;;;;;;37.30;21.10;;;;;;;2.92;72.50;100744.48;130588;1267;108835;-78
2022/02/24 08:07:17;;;;;;;32.70;18.10;;;;;;;2.94;72.41;100737.15;130780;1267;108657;-79
2022/02/24 08:10:23;;;;;;;30.60;14.70;;;;;;;2.95;72.59;100733.92;130446;1267;107685;-77
2022/02/24 08:13:29;;;;;;;27.10;13.60;;;;;;;2.99;72.53;100736.15;131236;1267;108814;-76
2022/02/24 08:16:35;;;;;;;22.80;11.20;;;;;;;3.06;72.61;100728.89;130788;1267;108698;-76
2022/02/24 08:19:42;;;;;;;34.20;18.80;;;;;;;3.19;72.47;100728.94;130641;1267;108725;-77
2022/02/24 08:22:49;;;;;;;36.60;20.90;;;;;;;3.32;72.27;100725.87;131168;1267;108913;-77
2022/02/24 08:25:54;;;;;;;30.10;13.80;;;;;;;3.44;72.19;100723.37;130611;1267;108738;-77
2022/02/24 08:29:00;;;;;;;29.80;14.90;;;;;;;3.54;72.01;100722.55;131202;1267;108913;-77
2022/02/24 08:32:06;;;;;;;26.20;12.40;;;;;;;3.61;72.02;100712.45;130556;1267;108997;-75
2022/02/24 08:35:13;;;;;;;29.60;15.60;;;;;;;3.68;72.03;100709.21;130724;1266;107156;-77
2022/02/24 08:38:19;;;;;;;25.00;12.40;;;;;;;3.75;71.93;100703.30;130658;1267;108791;-77
2022/02/24 08:41:24;;;;;;;25.00;12.10;;;;;;;3.82;71.79;100697.42;130513;1267;108697;-78
2022/02/24 08:44:30;;;;;;;24.50;11.50;;;;;;;3.88;71.80;100693.14;130460;1267;108756;-75
2022/02/24 08:47:36;;;;;;;24.30;11.60;;;;;;;3.93;71.66;100686.27;130604;1267;108728;-76
2022/02/24 08:50:42;;;;;;;25.40;11.90;;;;;;;4.01;71.50;100678.25;130543;1267;108806;-76
2022/02/24 08:53:47;;;;;;;24.90;11.50;;;;;;;4.07;71.43;100673.96;130514;1267;108648;-77
2022/02/24 08:56:53;;;;;;;23.80;10.80;;;;;;;4.15;71.27;100668.88;130545;1267;108018;-76
2022/02/24 08:59:58;;;;;;;21.80;9.80;;;;;;;4.26;71.25;100657.05;130365;1267;107731;-77
2022/02/24 09:03:04;;;;;;;23.20;11.20;;;;;;;4.39;71.19;100657.20;130446;1268;107289;-76
2022/02/24 09:06:09;;;;;;;22.40;12.40;;;;;;;4.55;71.05;100654.91;130397;1267;108788;-77
2022/02/24 09:09:16;;;;;;;24.40;11.80;;;;;;;4.68;70.59;100645.55;130439;1268;108656;-77
2022/02/24 09:12:21;;;;;;;24.90;12.10;;;;;;;4.78;70.50;100632.91;130426;1267;108662;-77
2022/02/24 09:15:27;;;;;;;21.40;11.40;;;;;;;4.86;70.55;100624.95;130515;1267;108704;-77
2022/02/24 09:18:32;;;;;;;26.90;14.40;;;;;;;4.91;70.37;100618.91;130326;1268;108903;-77
2022/02/24 09:21:38;;;;;;;24.30;12.90;;;;;;;4.97;70.34;100620.25;130402;1268;108951;-76
2022/02/24 09:24:44;;;;;;;26.30;13.60;;;;;;;5.03;70.16;100611.24;130349;1268;109724;-75
2022/02/24 09:27:49;;;;;;;23.10;12.30;;;;;;;5.08;70.29;100606.06;130489;1267;108804;-78
2022/02/24 09:30:55;;;;;;;23.10;12.20;;;;;;;5.16;70.40;100604.86;130502;1267;107736;-76
2022/02/24 09:34:01;;;;;;;26.70;12.30;;;;;;;5.22;70.20;100591.34;130495;1267;108984;-76
2022/02/24 09:37:07;;;;;;;24.60;12.00;;;;;;;5.28;69.93;100588.46;130672;1267;107695;-76
2022/02/24 09:40:14;;;;;;;22.40;11.40;;;;;;;5.34;69.90;100584.48;130639;1267;108953;-77
2022/02/24 09:43:20;;;;;;;24.30;11.30;;;;;;;5.40;69.88;100579.64;130493;1268;108936;-74
2022/02/24 09:46:27;;;;;;;18.20;10.30;;;;;;;5.48;69.80;100572.15;130482;1268;108769;-75
2022/02/24 09:49:34;;;;;;;21.00;11.40;;;;;;;5.57;69.52;100565.50;130631;1268;108647;-75
2022/02/24 09:52:39;;;;;;;20.30;10.00;;;;;;;5.64;69.29;100557.23;130435;1268;108241;-75
2022/02/24 09:55:45;;;;;;;21.70;9.70;;;;;;;5.73;69.10;100553.23;130483;1268;108941;-77
2022/02/24 09:58:52;;;;;;;18.50;9.20;;;;;;;5.82;68.54;100548.84;130456;1267;108665;-76
2022/02/24 10:01:59;;;;;;;19.40;9.50;;;;;;;5.89;68.46;100542.65;130544;1268;108888;-77
2022/02/24 10:05:10;;;;;;;18.50;9.60;;;;;;;5.95;68.46;100536.75;130520;1267;108598;-74
2022/02/24 10:08:15;;;;;;;19.40;11.30;;;;;;;6.02;68.42;100528.84;130725;1267;108746;-77
2022/02/24 10:11:24;;;;;;;24.70;10.80;;;;;;;6.09;68.31;100519.12;130563;1268;108867;-77
2022/02/24 10:14:34;;;;;;;20.40;10.40;;;;;;;6.18;68.45;100513.48;130657;1268;108699;-77
2022/02/24 10:17:39;;;;;;;29.90;16.30;;;;;;;6.26;67.98;100503.48;130472;1268;109150;-77
2022/02/24 10:20:47;;;;;;;28.20;18.20;;;;;;;6.36;68.11;100498.50;131133;1267;109278;-75
2022/02/24 10:23:53;;;;;;;46.60;26.50;;;;;;;6.49;67.77;100494.24;130389;1268;107824;-76
2022/02/24 10:27:17;;;;;;;35.90;19.70;;;;;;;6.62;67.64;100484.74;130371;1268;108782;-74
2022/02/24 10:30:24;;;;;;;17.60;8.40;;;;;;;6.76;67.04;100473.61;130404;1268;108859;-78
2022/02/24 10:33:30;;;;;;;18.50;9.60;;;;;;;6.86;66.50;100467.98;130612;1268;106810;-76
2022/02/24 10:36:38;;;;;;;21.30;9.40;;;;;;;6.94;66.74;100465.56;130833;1268;108798;-76
2022/02/24 10:39:43;;;;;;;17.10;7.70;;;;;;;7.03;66.33;100460.63;130482;1268;108981;-77
2022/02/24 10:42:49;;;;;;;18.50;7.90;;;;;;;7.12;66.36;100453.52;131298;1267;108847;-76
2022/02/24 10:46:03;;;;;;;12.00;5.90;;;;;;;7.18;65.86;100449.80;130580;1268;108750;-76
2022/02/24 10:49:12;;;;;;;14.70;6.50;;;;;;;7.25;65.78;100449.62;130717;1268;108717;-78
2022/02/24 10:52:20;;;;;;;10.80;4.80;;;;;;;7.31;65.76;100441.55;130812;1268;109214;-77
2022/02/24 10:55:26;;;;;;;9.70;5.60;;;;;;;7.36;65.71;100436.99;130617;1268;108890;-77
2022/02/24 10:58:36;;;;;;;11.50;5.10;;;;;;;7.42;65.06;100431.23;130475;1268;108800;-78
2022/02/24 11:01:42;;;;;;;12.00;6.10;;;;;;;7.46;64.78;100426.25;130604;1268;108757;-78
2022/02/24 11:04:48;;;;;;;13.30;5.00;;;;;;;7.49;65.10;100423.70;130425;1268;108859;-76
2022/02/24 11:07:54;;;;;;;13.00;5.30;;;;;;;7.54;64.71;100413.78;130386;1268;108727;-77
2022/02/24 11:11:00;;;;;;;13.00;5.10;;;;;;;7.56;63.60;100410.23;130595;1268;108752;-77
2022/02/24 11:14:10;;;;;;;12.70;5.40;;;;;;;7.58;64.02;100405.32;130434;1267;108831;-76
2022/02/24 11:17:16;;;;;;;11.20;4.90;;;;;;;7.61;64.03;100399.86;130773;1268;108807;-76
2022/02/24 11:20:23;;;;;;;11.50;5.10;;;;;;;7.66;64.20;100399.30;130622;1266;108965;-80
2022/02/24 11:23:29;;;;;;;11.90;5.30;;;;;;;7.71;63.73;100395.67;131555;1268;108966;-77
2022/02/24 11:26:53;;;;;;;11.20;5.10;;;;;;;7.76;63.40;100394.15;130761;1267;107378;-78
2022/02/24 11:30:04;;;;;;;10.30;5.30;;;;;;;7.84;63.89;100382.01;130327;1268;108834;-76
2022/02/24 11:33:10;;;;;;;10.60;4.80;;;;;;;7.91;64.17;100369.14;130604;1268;108775;-78
2022/02/24 11:36:16;;;;;;;12.70;6.10;;;;;;;8.00;64.23;100357.42;130522;1268;108914;-78
2022/02/24 11:39:22;;;;;;;13.30;5.70;;;;;;;8.06;63.63;100344.48;130500;1269;108771;-76
2022/02/24 11:42:30;;;;;;;12.30;5.80;;;;;;;8.10;63.71;100333.66;130446;1268;108790;-76
2022/02/24 11:45:38;;;;;;;10.50;4.80;;;;;;;8.16;63.48;100327.24;130470;1266;108739;-75
2022/02/24 11:48:45;;;;;;;10.70;3.80;;;;;;;8.22;62.27;100322.50;130457;1267;108940;-75
2022/02/24 11:52:21;;;;;;;8.90;4.30;;;;;;;8.26;61.62;100315.27;130416;1268;107187;-75
2022/02/24 11:55:55;;;;;;;6.40;3.40;;;;;;;8.32;61.74;100305.70;130518;1268;108662;-76
2022/02/24 11:59:03;;;;;;;9.50;3.80;;;;;;;8.38;61.42;100300.30;130449;1268;108903;-76
2022/02/24 12:02:10;;;;;;;9.10;3.40;;;;;;;8.44;61.45;100292.39;130526;1268;107530;-74
2022/02/24 12:05:29;;;;;;;9.30;3.40;;;;;;;8.50;61.06;100281.92;130431;1267;108975;-75
2022/02/24 12:09:06;;;;;;;8.60;3.50;;;;;;;8.59;61.07;100268.04;130451;1267;108743;-74
2022/02/24 12:12:21;;;;;;;8.80;3.80;;;;;;;8.67;60.45;100260.20;130464;1267;108804;-76
2022/02/24 12:15:26;;;;;;;9.50;3.80;;;;;;;8.74;60.49;100259.71;130459;1267;107324;-74
2022/02/24 12:18:40;;;;;;;10.00;4.50;;;;;;;8.80;59.84;100246.38;130395;1267;108664;-76
2022/02/24 12:21:47;;;;;;;9.40;4.00;;;;;;;8.85;59.94;100242.95;130624;1267;107426;-78
2022/02/24 12:24:55;;;;;;;10.00;4.50;;;;;;;8.90;60.12;100242.52;130450;1268;109313;-76
2022/02/24 12:28:05;;;;;;;10.30;3.80;;;;;;;8.95;59.53;100235.94;130829;1267;108767;-77
2022/02/24 12:31:20;;;;;;;8.70;3.80;;;;;;;8.98;58.82;100232.88;130746;1267;108535;-76
2022/02/24 12:34:26;;;;;;;9.80;4.00;;;;;;;8.99;59.24;100224.93;130541;1267;108631;-75
2022/02/24 12:37:33;;;;;;;11.70;4.70;;;;;;;9.03;59.26;100224.72;130356;1268;108975;-77
2022/02/24 12:40:41;;;;;;;9.90;4.00;;;;;;;9.07;58.56;100219.38;130468;1267;108907;-76
2022/02/24 12:43:46;;;;;;;9.20;3.50;;;;;;;9.11;57.89;100210.38;130410;1267;108783;-76
2022/02/24 12:46:52;;;;;;;10.20;4.30;;;;;;;9.13;57.14;100207.62;130417;1267;108526;-75
2022/02/24 12:49:57;;;;;;;10.70;5.10;;;;;;;9.15;58.15;100200.22;130464;1267;108665;-75
2022/02/24 12:53:15;;;;;;;9.60;4.00;;;;;;;9.17;56.73;100196.09;130544;1267;109393;-75
2022/02/24 12:56:21;;;;;;;14.30;7.90;;;;;;;9.18;56.51;100184.34;130478;1267;107250;-75
2022/02/24 12:59:28;;;;;;;10.60;5.70;;;;;;;9.16;57.43;100172.75;130468;1267;195932;-75
2022/02/24 13:02:34;;;;;;;8.20;4.30;;;;;;;9.17;56.81;100162.35;130541;1267;108749;-75
2022/02/24 13:05:50;;;;;;;10.40;6.00;;;;;;;9.19;56.55;100157.75;130444;1267;107758;-74
2022/02/24 13:12:21;;;;;;;8.70;4.90;;;;;;;9.20;56.68;100138.84;131181;1267;107434;-77
2022/02/24 13:15:31;;;;;;;7.90;4.70;;;;;;;9.22;56.48;100124.81;131215;1267;108742;-77
2022/02/24 13:18:42;;;;;;;10.10;4.60;;;;;;;9.24;55.64;100118.75;130911;1267;108721;-78
2022/02/24 13:21:52;;;;;;;8.50;4.10;;;;;;;9.26;55.93;100103.69;130578;1267;108684;-78
2022/02/24 13:24:58;;;;;;;8.70;4.60;;;;;;;9.26;55.55;100093.04;130247;1268;109108;-78
2022/02/24 13:28:04;;;;;;;9.60;5.80;;;;;;;9.26;55.42;100080.78;130183;1268;107962;-77
2022/02/24 13:31:17;;;;;;;7.20;4.20;;;;;;;9.24;55.13;100077.95;130236;1268;108666;-77
2022/02/24 13:34:23;;;;;;;11.00;5.90;;;;;;;9.20;54.83;100063.57;130193;1267;107708;-76
2022/02/24 13:37:38;;;;;;;9.30;4.60;;;;;;;9.18;55.28;100053.66;130319;1268;109018;-76
2022/02/24 13:40:50;;;;;;;11.80;6.00;;;;;;;9.17;54.51;100044.39;130433;1268;107021;-78
2022/02/24 13:44:00;;;;;;;9.40;4.10;;;;;;;9.15;54.09;100038.91;130215;1268;108884;-78
2022/02/24 13:47:08;;;;;;;9.10;4.70;;;;;;;9.13;54.46;100042.59;130220;1268;108735;-79
2022/02/24 13:50:13;;;;;;;9.40;4.00;;;;;;;9.13;54.90;100030.60;130479;1268;108720;-78
2022/02/24 13:53:25;;;;;;;8.20;4.30;;;;;;;9.12;54.42;100021.46;130721;1268;108821;-79
2022/02/24 13:56:30;;;;;;;9.70;4.40;;;;;;;9.09;54.46;100009.10;130820;1268;108885;-78
2022/02/24 13:59:36;;;;;;;10.40;4.40;;;;;;;9.05;54.41;100004.55;130215;1268;108065;-78
2022/02/24 14:02:42;;;;;;;9.60;4.70;;;;;;;8.98;54.42;99998.42;130507;1268;108884;-77
2022/02/24 14:05:47;;;;;;;11.60;4.60;;;;;;;8.93;53.91;99995.08;131125;1266;108951;-79